sensor_id;sensor_type;location;lat;lon;timestamp;temperature;humidity
39345;DHT22;25061;51.954;6.996;2022-08-01T00:02:10;20.00;99.90
39345;DHT22;25061;51.954;6.996;2022-08-01T00:04:36;20.00;99.90
39345;DHT22;25061;51.954;6.996;2022-08-01T00:07:01;19.80;99.90
39345;DHT22;25061;51.954;6.996;2022-08-01T00:09:27;19.60;99.90
39345;DHT22;25061;51.954;6.996;2022-08-01T00:11:52;19.60;99.90
39345;DHT22;25061;51.954;6.996;2022-08-01T00:14:18;19.50;99.90
39345;DHT22;25061;51.954;6.996;2022-08-01T00:16:44;19.40;99.90
39345;DHT22;25061;51.954;6.996;2022-08-01T00:19:09;19.40;99.90
39345;DHT22;25061;51.954;6.996;2022-08-01T00:21:35;19.30;99.90
39345;DHT22;25061;51.954;6.996;2022-08-01T00:24:00;19.40;99.90
39345;DHT22;25061;51.954;6.996;2022-08-01T00:26:26;19.50;99.90
39345;DHT22;25061;51.954;6.996;2022-08-01T00:28:52;19.40;99.90
39345;DHT22;25061;51.954;6.996;2022-08-01T00:31:17;19.40;99.90
39345;DHT22;25061;51.954;6.996;2022-08-01T00:33:43;19.40;99.90
39345;DHT22;25061;51.954;6.996;2022-08-01T00:36:08;19.40;99.90
39345;DHT22;25061;51.954;6.996;2022-08-01T00:38:34;19.40;99.90
39345;DHT22;25061;51.954;6.996;2022-08-01T00:40:59;19.20;99.90
39345;DHT22;25061;51.954;6.996;2022-08-01T00:43:25;19.20;99.90
39345;DHT22;25061;51.954;6.996;2022-08-01T00:45:50;19.10;99.90
39345;DHT22;25061;51.954;6.996;2022-08-01T00:48:16;19.10;99.90
39345;DHT22;25061;51.954;6.996;2022-08-01T00:50:42;19.00;99.90
39345;DHT22;25061;51.954;6.996;2022-08-01T00:53:07;19.10;99.90
39345;DHT22;25061;51.954;6.996;2022-08-01T00:55:34;19.00;99.90
39345;DHT22;25061;51.954;6.996;2022-08-01T00:58:00;19.10;99.90
39345;DHT22;25061;51.954;6.996;2022-08-01T01:00:26;19.20;99.90
39345;DHT22;25061;51.954;6.996;2022-08-01T01:02:51;19.30;99.90
39345;DHT22;25061;51.954;6.996;2022-08-01T01:05:17;19.20;99.90
39345;DHT22;25061;51.954;6.996;2022-08-01T01:08:08;19.30;99.90
39345;DHT22;25061;51.954;6.996;2022-08-01T01:10:55;19.40;99.90
39345;DHT22;25061;51.954;6.996;2022-08-01T01:13:35;19.20;99.90
39345;DHT22;25061;51.954;6.996;2022-08-01T01:16:08;19.00;99.90
39345;DHT22;25061;51.954;6.996;2022-08-01T01:18:45;19.00;99.90
39345;DHT22;25061;51.954;6.996;2022-08-01T01:24:16;19.00;99.90
39345;DHT22;25061;51.954;6.996;2022-08-01T01:26:55;19.20;99.90
39345;DHT22;25061;51.954;6.996;2022-08-01T01:29:39;19.20;99.90
39345;DHT22;25061;51.954;6.996;2022-08-01T01:32:10;18.90;99.90
39345;DHT22;25061;51.954;6.996;2022-08-01T01:34:40;19.00;99.90
39345;DHT22;25061;51.954;6.996;2022-08-01T01:37:11;18.90;99.90
39345;DHT22;25061;51.954;6.996;2022-08-01T01:39:39;18.80;99.90
39345;DHT22;25061;51.954;6.996;2022-08-01T01:42:05;18.80;99.90
39345;DHT22;25061;51.954;6.996;2022-08-01T01:44:32;19.10;99.90
39345;DHT22;25061;51.954;6.996;2022-08-01T01:46:59;18.90;99.90
39345;DHT22;25061;51.954;6.996;2022-08-01T01:49:27;18.80;99.90
39345;DHT22;25061;51.954;6.996;2022-08-01T01:51:55;18.80;99.90
39345;DHT22;25061;51.954;6.996;2022-08-01T01:54:24;18.90;99.90
39345;DHT22;25061;51.954;6.996;2022-08-01T01:56:51;19.00;99.90
39345;DHT22;25061;51.954;6.996;2022-08-01T01:59:20;19.00;99.90
39345;DHT22;25061;51.954;6.996;2022-08-01T02:01:51;19.00;99.90
39345;DHT22;25061;51.954;6.996;2022-08-01T02:04:20;18.90;99.90
39345;DHT22;25061;51.954;6.996;2022-08-01T02:06:47;19.00;99.90
39345;DHT22;25061;51.954;6.996;2022-08-01T02:09:17;19.10;99.90
39345;DHT22;25061;51.954;6.996;2022-08-01T02:11:45;19.00;99.90
39345;DHT22;25061;51.954;6.996;2022-08-01T02:14:11;19.00;99.90
39345;DHT22;25061;51.954;6.996;2022-08-01T02:16:40;18.90;99.90
39345;DHT22;25061;51.954;6.996;2022-08-01T02:19:07;18.80;99.90
39345;DHT22;25061;51.954;6.996;2022-08-01T02:24:28;18.60;99.90
39345;DHT22;25061;51.954;6.996;2022-08-01T02:27:00;18.50;99.90
39345;DHT22;25061;51.954;6.996;2022-08-01T02:29:47;18.60;99.90
39345;DHT22;25061;51.954;6.996;2022-08-01T02:32:20;18.70;99.90
39345;DHT22;25061;51.954;6.996;2022-08-01T02:34:49;18.90;99.90
39345;DHT22;25061;51.954;6.996;2022-08-01T02:37:17;18.90;99.90
39345;DHT22;25061;51.954;6.996;2022-08-01T02:39:46;18.80;99.90
39345;DHT22;25061;51.954;6.996;2022-08-01T02:42:13;18.70;99.90
39345;DHT22;25061;51.954;6.996;2022-08-01T02:44:41;18.80;99.90
39345;DHT22;25061;51.954;6.996;2022-08-01T02:47:07;18.70;99.90
39345;DHT22;25061;51.954;6.996;2022-08-01T02:49:41;18.80;99.90
39345;DHT22;25061;51.954;6.996;2022-08-01T02:52:09;18.80;99.90
39345;DHT22;25061;51.954;6.996;2022-08-01T02:57:03;18.70;99.90
39345;DHT22;25061;51.954;6.996;2022-08-01T02:59:31;18.70;99.90
39345;DHT22;25061;51.954;6.996;2022-08-01T03:01:59;18.80;99.90
39345;DHT22;25061;51.954;6.996;2022-08-01T03:04:25;18.90;99.90
39345;DHT22;25061;51.954;6.996;2022-08-01T03:06:55;18.70;99.90
39345;DHT22;25061;51.954;6.996;2022-08-01T03:09:25;18.80;99.90
39345;DHT22;25061;51.954;6.996;2022-08-01T03:11:52;18.90;99.90
39345;DHT22;25061;51.954;6.996;2022-08-01T03:14:20;19.00;99.90
39345;DHT22;25061;51.954;6.996;2022-08-01T03:16:47;18.80;99.90
39345;DHT22;25061;51.954;6.996;2022-08-01T03:19:14;18.80;99.90
39345;DHT22;25061;51.954;6.996;2022-08-01T03:21:43;18.90;99.90
39345;DHT22;25061;51.954;6.996;2022-08-01T03:24:10;18.80;99.90
39345;DHT22;25061;51.954;6.996;2022-08-01T03:26:38;18.80;99.90
39345;DHT22;25061;51.954;6.996;2022-08-01T03:29:06;19.10;99.90
39345;DHT22;25061;51.954;6.996;2022-08-01T03:31:36;19.30;99.90
39345;DHT22;25061;51.954;6.996;2022-08-01T03:34:03;19.10;99.90
39345;DHT22;25061;51.954;6.996;2022-08-01T03:36:30;19.00;99.90
39345;DHT22;25061;51.954;6.996;2022-08-01T03:38:58;19.10;99.90
39345;DHT22;25061;51.954;6.996;2022-08-01T03:41:28;18.90;99.90
39345;DHT22;25061;51.954;6.996;2022-08-01T03:44:03;19.00;99.90
39345;DHT22;25061;51.954;6.996;2022-08-01T03:46:36;18.80;99.90
39345;DHT22;25061;51.954;6.996;2022-08-01T03:49:10;18.80;99.90
39345;DHT22;25061;51.954;6.996;2022-08-01T03:51:38;18.80;99.90
39345;DHT22;25061;51.954;6.996;2022-08-01T03:54:04;18.60;99.90
39345;DHT22;25061;51.954;6.996;2022-08-01T03:56:33;18.80;99.90
39345;DHT22;25061;51.954;6.996;2022-08-01T03:58:59;18.70;99.90
39345;DHT22;25061;51.954;6.996;2022-08-01T04:01:27;18.70;99.90
39345;DHT22;25061;51.954;6.996;2022-08-01T04:03:53;18.80;99.90
39345;DHT22;25061;51.954;6.996;2022-08-01T04:06:19;18.70;99.90
39345;DHT22;25061;51.954;6.996;2022-08-01T04:08:46;18.70;99.90
39345;DHT22;25061;51.954;6.996;2022-08-01T04:11:24;18.70;99.90
39345;DHT22;25061;51.954;6.996;2022-08-01T04:13:51;18.60;99.90
39345;DHT22;25061;51.954;6.996;2022-08-01T04:16:18;18.50;99.90
39345;DHT22;25061;51.954;6.996;2022-08-01T04:18:44;18.60;99.90
39345;DHT22;25061;51.954;6.996;2022-08-01T04:21:10;18.40;99.90
39345;DHT22;25061;51.954;6.996;2022-08-01T04:23:38;18.50;99.90
39345;DHT22;25061;51.954;6.996;2022-08-01T04:29:15;18.60;99.90
39345;DHT22;25061;51.954;6.996;2022-08-01T04:31:43;18.60;99.90
39345;DHT22;25061;51.954;6.996;2022-08-01T04:34:11;18.60;99.90
39345;DHT22;25061;51.954;6.996;2022-08-01T04:36:38;18.60;99.90
39345;DHT22;25061;51.954;6.996;2022-08-01T04:39:07;18.60;99.90
39345;DHT22;25061;51.954;6.996;2022-08-01T04:41:34;18.70;99.90
39345;DHT22;25061;51.954;6.996;2022-08-01T04:44:01;18.60;99.90
39345;DHT22;25061;51.954;6.996;2022-08-01T04:46:28;18.50;99.90
39345;DHT22;25061;51.954;6.996;2022-08-01T04:48:54;18.60;99.90
39345;DHT22;25061;51.954;6.996;2022-08-01T04:51:20;18.70;99.90
39345;DHT22;25061;51.954;6.996;2022-08-01T04:53:48;18.70;99.90
39345;DHT22;25061;51.954;6.996;2022-08-01T04:56:15;18.70;99.90
39345;DHT22;25061;51.954;6.996;2022-08-01T04:58:42;18.40;99.90
39345;DHT22;25061;51.954;6.996;2022-08-01T05:01:08;18.40;99.90
39345;DHT22;25061;51.954;6.996;2022-08-01T05:03:34;18.50;99.90
39345;DHT22;25061;51.954;6.996;2022-08-01T05:06:00;18.80;99.90
39345;DHT22;25061;51.954;6.996;2022-08-01T05:08:26;18.70;99.90
39345;DHT22;25061;51.954;6.996;2022-08-01T05:10:51;18.70;99.90
39345;DHT22;25061;51.954;6.996;2022-08-01T05:13:18;18.90;99.90
39345;DHT22;25061;51.954;6.996;2022-08-01T05:15:44;18.70;99.90
39345;DHT22;25061;51.954;6.996;2022-08-01T05:18:09;18.60;99.90
39345;DHT22;25061;51.954;6.996;2022-08-01T05:20:35;18.50;99.90
39345;DHT22;25061;51.954;6.996;2022-08-01T05:23:02;18.40;99.90
39345;DHT22;25061;51.954;6.996;2022-08-01T05:25:28;18.60;99.90
39345;DHT22;25061;51.954;6.996;2022-08-01T05:27:53;18.60;99.90
39345;DHT22;25061;51.954;6.996;2022-08-01T05:30:19;18.70;99.90
39345;DHT22;25061;51.954;6.996;2022-08-01T05:32:44;18.80;99.90
39345;DHT22;25061;51.954;6.996;2022-08-01T05:35:10;18.80;99.90
39345;DHT22;25061;51.954;6.996;2022-08-01T05:37:36;18.80;99.90
39345;DHT22;25061;51.954;6.996;2022-08-01T05:40:02;18.80;99.90
39345;DHT22;25061;51.954;6.996;2022-08-01T05:42:28;18.90;99.90
39345;DHT22;25061;51.954;6.996;2022-08-01T05:44:53;18.80;99.90
39345;DHT22;25061;51.954;6.996;2022-08-01T05:47:19;18.80;99.90
39345;DHT22;25061;51.954;6.996;2022-08-01T05:49:45;18.70;99.90
39345;DHT22;25061;51.954;6.996;2022-08-01T05:52:11;18.70;99.90
39345;DHT22;25061;51.954;6.996;2022-08-01T05:54:36;18.60;99.90
39345;DHT22;25061;51.954;6.996;2022-08-01T05:57:02;18.40;99.90
39345;DHT22;25061;51.954;6.996;2022-08-01T05:59:29;18.60;99.90
39345;DHT22;25061;51.954;6.996;2022-08-01T06:01:54;18.70;99.90
39345;DHT22;25061;51.954;6.996;2022-08-01T06:04:20;18.80;99.90
39345;DHT22;25061;51.954;6.996;2022-08-01T06:06:46;18.70;99.90
39345;DHT22;25061;51.954;6.996;2022-08-01T06:09:12;18.70;99.90
39345;DHT22;25061;51.954;6.996;2022-08-01T06:11:37;18.90;99.90
39345;DHT22;25061;51.954;6.996;2022-08-01T06:14:03;18.90;99.90
39345;DHT22;25061;51.954;6.996;2022-08-01T06:16:28;19.00;99.90
39345;DHT22;25061;51.954;6.996;2022-08-01T06:18:54;18.80;99.90
39345;DHT22;25061;51.954;6.996;2022-08-01T06:21:19;19.00;99.90
39345;DHT22;25061;51.954;6.996;2022-08-01T06:23:45;18.90;99.90
39345;DHT22;25061;51.954;6.996;2022-08-01T06:26:11;19.00;99.90
39345;DHT22;25061;51.954;6.996;2022-08-01T06:28:37;19.10;99.90
39345;DHT22;25061;51.954;6.996;2022-08-01T06:31:03;19.10;99.90
39345;DHT22;25061;51.954;6.996;2022-08-01T06:33:29;19.20;99.90
39345;DHT22;25061;51.954;6.996;2022-08-01T06:35:55;19.00;99.90
39345;DHT22;25061;51.954;6.996;2022-08-01T06:38:21;19.00;99.90
39345;DHT22;25061;51.954;6.996;2022-08-01T06:40:46;19.30;99.90
39345;DHT22;25061;51.954;6.996;2022-08-01T06:43:12;19.30;99.90
39345;DHT22;25061;51.954;6.996;2022-08-01T06:45:39;19.30;99.90
39345;DHT22;25061;51.954;6.996;2022-08-01T06:48:05;19.30;99.90
39345;DHT22;25061;51.954;6.996;2022-08-01T06:50:31;19.20;99.90
39345;DHT22;25061;51.954;6.996;2022-08-01T06:52:57;19.20;99.90
39345;DHT22;25061;51.954;6.996;2022-08-01T06:55:22;19.30;99.90
39345;DHT22;25061;51.954;6.996;2022-08-01T06:57:52;19.20;99.90
39345;DHT22;25061;51.954;6.996;2022-08-01T07:00:20;19.40;99.90
39345;DHT22;25061;51.954;6.996;2022-08-01T07:02:50;19.40;99.90
39345;DHT22;25061;51.954;6.996;2022-08-01T07:05:15;19.20;99.90
39345;DHT22;25061;51.954;6.996;2022-08-01T07:07:41;19.20;99.90
39345;DHT22;25061;51.954;6.996;2022-08-01T07:10:07;19.20;99.90
39345;DHT22;25061;51.954;6.996;2022-08-01T07:12:34;19.10;99.90
39345;DHT22;25061;51.954;6.996;2022-08-01T07:15:03;19.50;99.90
39345;DHT22;25061;51.954;6.996;2022-08-01T07:17:28;19.50;99.90
39345;DHT22;25061;51.954;6.996;2022-08-01T07:19:54;19.40;99.90
39345;DHT22;25061;51.954;6.996;2022-08-01T07:22:20;19.40;99.90
39345;DHT22;25061;51.954;6.996;2022-08-01T07:24:46;19.50;99.90
39345;DHT22;25061;51.954;6.996;2022-08-01T07:27:11;19.30;99.90
39345;DHT22;25061;51.954;6.996;2022-08-01T07:29:37;19.40;99.90
39345;DHT22;25061;51.954;6.996;2022-08-01T07:32:03;19.60;99.90
39345;DHT22;25061;51.954;6.996;2022-08-01T07:34:28;19.60;99.90
39345;DHT22;25061;51.954;6.996;2022-08-01T07:36:54;19.50;99.90
39345;DHT22;25061;51.954;6.996;2022-08-01T07:39:20;19.20;99.90
39345;DHT22;25061;51.954;6.996;2022-08-01T07:41:46;19.00;99.90
39345;DHT22;25061;51.954;6.996;2022-08-01T07:44:11;18.70;99.90
39345;DHT22;25061;51.954;6.996;2022-08-01T07:46:37;18.60;99.90
39345;DHT22;25061;51.954;6.996;2022-08-01T07:49:02;18.50;99.90
39345;DHT22;25061;51.954;6.996;2022-08-01T07:51:28;18.60;99.90
39345;DHT22;25061;51.954;6.996;2022-08-01T07:53:53;18.60;99.90
39345;DHT22;25061;51.954;6.996;2022-08-01T07:56:20;18.40;99.90
39345;DHT22;25061;51.954;6.996;2022-08-01T07:58:45;18.30;99.90
39345;DHT22;25061;51.954;6.996;2022-08-01T08:01:12;18.10;99.90
39345;DHT22;25061;51.954;6.996;2022-08-01T08:03:37;18.20;99.90
39345;DHT22;25061;51.954;6.996;2022-08-01T08:06:03;18.20;99.90
39345;DHT22;25061;51.954;6.996;2022-08-01T08:08:28;18.20;99.90
39345;DHT22;25061;51.954;6.996;2022-08-01T08:10:54;18.30;99.90
39345;DHT22;25061;51.954;6.996;2022-08-01T08:13:20;18.20;99.90
39345;DHT22;25061;51.954;6.996;2022-08-01T08:15:45;18.30;99.90
39345;DHT22;25061;51.954;6.996;2022-08-01T08:18:11;18.20;99.90
39345;DHT22;25061;51.954;6.996;2022-08-01T08:20:37;18.30;99.90
39345;DHT22;25061;51.954;6.996;2022-08-01T08:23:03;18.30;99.90
39345;DHT22;25061;51.954;6.996;2022-08-01T08:25:48;18.50;99.90
39345;DHT22;25061;51.954;6.996;2022-08-01T08:28:14;18.50;99.90
39345;DHT22;25061;51.954;6.996;2022-08-01T08:30:40;18.60;99.90
39345;DHT22;25061;51.954;6.996;2022-08-01T08:33:05;18.40;99.90
39345;DHT22;25061;51.954;6.996;2022-08-01T08:35:31;18.50;99.90
39345;DHT22;25061;51.954;6.996;2022-08-01T08:37:57;18.70;99.90
39345;DHT22;25061;51.954;6.996;2022-08-01T08:40:24;18.70;99.90
39345;DHT22;25061;51.954;6.996;2022-08-01T08:42:54;18.80;99.90
39345;DHT22;25061;51.954;6.996;2022-08-01T08:45:20;18.90;99.90
39345;DHT22;25061;51.954;6.996;2022-08-01T08:47:46;18.70;99.90
39345;DHT22;25061;51.954;6.996;2022-08-01T08:50:13;18.90;99.90
39345;DHT22;25061;51.954;6.996;2022-08-01T08:52:40;19.00;99.90
39345;DHT22;25061;51.954;6.996;2022-08-01T08:55:07;19.00;99.90
39345;DHT22;25061;51.954;6.996;2022-08-01T08:57:33;19.00;99.90
39345;DHT22;25061;51.954;6.996;2022-08-01T08:59:59;19.00;99.90
39345;DHT22;25061;51.954;6.996;2022-08-01T09:02:25;19.10;99.90
39345;DHT22;25061;51.954;6.996;2022-08-01T09:04:51;19.10;99.90
39345;DHT22;25061;51.954;6.996;2022-08-01T09:07:17;19.10;99.90
39345;DHT22;25061;51.954;6.996;2022-08-01T09:09:42;19.20;99.90
39345;DHT22;25061;51.954;6.996;2022-08-01T09:12:08;19.00;99.90
39345;DHT22;25061;51.954;6.996;2022-08-01T09:14:44;19.00;99.90
39345;DHT22;25061;51.954;6.996;2022-08-01T09:17:10;19.20;99.90
39345;DHT22;25061;51.954;6.996;2022-08-01T09:19:40;19.30;99.90
39345;DHT22;25061;51.954;6.996;2022-08-01T09:22:09;19.10;99.90
39345;DHT22;25061;51.954;6.996;2022-08-01T09:24:35;19.20;99.90
39345;DHT22;25061;51.954;6.996;2022-08-01T09:27:14;19.10;99.90
39345;DHT22;25061;51.954;6.996;2022-08-01T09:29:41;19.20;99.90
39345;DHT22;25061;51.954;6.996;2022-08-01T09:32:06;19.30;99.90
39345;DHT22;25061;51.954;6.996;2022-08-01T09:34:32;19.40;99.90
39345;DHT22;25061;51.954;6.996;2022-08-01T09:37:00;19.40;99.90
39345;DHT22;25061;51.954;6.996;2022-08-01T09:39:29;19.40;99.90
39345;DHT22;25061;51.954;6.996;2022-08-01T09:42:23;19.30;99.90
39345;DHT22;25061;51.954;6.996;2022-08-01T09:44:49;19.20;99.90
39345;DHT22;25061;51.954;6.996;2022-08-01T09:47:18;19.00;99.90
39345;DHT22;25061;51.954;6.996;2022-08-01T09:49:52;19.10;99.90
39345;DHT22;25061;51.954;6.996;2022-08-01T09:52:23;19.00;99.90
39345;DHT22;25061;51.954;6.996;2022-08-01T09:54:58;19.10;99.90
39345;DHT22;25061;51.954;6.996;2022-08-01T09:57:24;19.00;99.90
39345;DHT22;25061;51.954;6.996;2022-08-01T09:59:52;18.70;99.90
39345;DHT22;25061;51.954;6.996;2022-08-01T10:02:35;18.90;99.90
39345;DHT22;25061;51.954;6.996;2022-08-01T10:05:04;18.60;99.90
39345;DHT22;25061;51.954;6.996;2022-08-01T10:07:30;18.60;99.90
39345;DHT22;25061;51.954;6.996;2022-08-01T10:09:55;18.20;99.90
39345;DHT22;25061;51.954;6.996;2022-08-01T10:12:33;18.00;99.90
39345;DHT22;25061;51.954;6.996;2022-08-01T10:14:59;18.10;99.90
39345;DHT22;25061;51.954;6.996;2022-08-01T10:17:25;17.80;99.90
39345;DHT22;25061;51.954;6.996;2022-08-01T10:19:51;17.80;99.90
39345;DHT22;25061;51.954;6.996;2022-08-01T10:22:23;17.80;99.90
39345;DHT22;25061;51.954;6.996;2022-08-01T10:24:50;17.90;99.90
39345;DHT22;25061;51.954;6.996;2022-08-01T10:27:19;18.10;99.90
39345;DHT22;25061;51.954;6.996;2022-08-01T10:29:58;17.90;99.90
39345;DHT22;25061;51.954;6.996;2022-08-01T10:32:29;18.00;99.90
39345;DHT22;25061;51.954;6.996;2022-08-01T10:34:55;18.00;99.90
39345;DHT22;25061;51.954;6.996;2022-08-01T10:37:22;18.30;99.90
39345;DHT22;25061;51.954;6.996;2022-08-01T10:39:49;18.30;99.90
39345;DHT22;25061;51.954;6.996;2022-08-01T10:42:16;18.60;99.90
39345;DHT22;25061;51.954;6.996;2022-08-01T10:44:43;18.70;99.90
39345;DHT22;25061;51.954;6.996;2022-08-01T10:47:13;18.50;99.90
39345;DHT22;25061;51.954;6.996;2022-08-01T10:49:51;18.70;99.90
39345;DHT22;25061;51.954;6.996;2022-08-01T10:52:19;18.90;99.90
39345;DHT22;25061;51.954;6.996;2022-08-01T10:54:45;19.00;99.90
39345;DHT22;25061;51.954;6.996;2022-08-01T10:57:12;19.10;99.90
39345;DHT22;25061;51.954;6.996;2022-08-01T10:59:49;19.10;99.90
39345;DHT22;25061;51.954;6.996;2022-08-01T11:02:30;19.00;99.90
39345;DHT22;25061;51.954;6.996;2022-08-01T11:05:10;18.70;99.90
39345;DHT22;25061;51.954;6.996;2022-08-01T11:07:47;19.20;99.90
39345;DHT22;25061;51.954;6.996;2022-08-01T11:10:39;19.10;99.90
39345;DHT22;25061;51.954;6.996;2022-08-01T11:13:06;18.90;99.90
39345;DHT22;25061;51.954;6.996;2022-08-01T11:15:37;18.60;99.90
39345;DHT22;25061;51.954;6.996;2022-08-01T11:21:01;18.80;99.90
39345;DHT22;25061;51.954;6.996;2022-08-01T11:23:29;18.70;99.90
39345;DHT22;25061;51.954;6.996;2022-08-01T11:30:53;19.60;99.90
39345;DHT22;25061;51.954;6.996;2022-08-01T11:38:39;19.80;99.90
39345;DHT22;25061;51.954;6.996;2022-08-01T11:43:59;20.00;99.90
39345;DHT22;25061;51.954;6.996;2022-08-01T11:52:19;19.90;99.90
39345;DHT22;25061;51.954;6.996;2022-08-01T11:55:11;19.90;99.90
39345;DHT22;25061;51.954;6.996;2022-08-01T11:57:36;20.10;99.90
39345;DHT22;25061;51.954;6.996;2022-08-01T12:00:13;20.20;99.90
39345;DHT22;25061;51.954;6.996;2022-08-01T12:02:39;20.40;99.90
39345;DHT22;25061;51.954;6.996;2022-08-01T12:05:10;20.20;99.90
39345;DHT22;25061;51.954;6.996;2022-08-01T12:07:41;20.10;99.90
39345;DHT22;25061;51.954;6.996;2022-08-01T12:10:12;19.90;99.90
39345;DHT22;25061;51.954;6.996;2022-08-01T12:12:55;19.90;99.90
39345;DHT22;25061;51.954;6.996;2022-08-01T12:15:23;19.70;99.90
39345;DHT22;25061;51.954;6.996;2022-08-01T12:18:03;19.80;99.90
39345;DHT22;25061;51.954;6.996;2022-08-01T12:20:34;19.90;99.90
39345;DHT22;25061;51.954;6.996;2022-08-01T12:23:05;20.10;99.90
39345;DHT22;25061;51.954;6.996;2022-08-01T12:25:34;20.40;99.90
39345;DHT22;25061;51.954;6.996;2022-08-01T12:28:04;20.60;99.90
39345;DHT22;25061;51.954;6.996;2022-08-01T12:30:31;20.60;99.90
39345;DHT22;25061;51.954;6.996;2022-08-01T12:33:00;20.70;99.90
39345;DHT22;25061;51.954;6.996;2022-08-01T12:35:28;21.30;99.90
39345;DHT22;25061;51.954;6.996;2022-08-01T12:37:57;21.70;99.90
39345;DHT22;25061;51.954;6.996;2022-08-01T12:42:52;21.10;99.90
39345;DHT22;25061;51.954;6.996;2022-08-01T12:45:21;20.90;99.90
39345;DHT22;25061;51.954;6.996;2022-08-01T12:47:48;21.00;99.90
39345;DHT22;25061;51.954;6.996;2022-08-01T12:50:16;21.20;99.90
39345;DHT22;25061;51.954;6.996;2022-08-01T12:52:43;21.30;99.90
39345;DHT22;25061;51.954;6.996;2022-08-01T12:55:20;21.30;99.90
39345;DHT22;25061;51.954;6.996;2022-08-01T12:57:48;21.00;99.90
39345;DHT22;25061;51.954;6.996;2022-08-01T13:00:25;20.90;99.90
39345;DHT22;25061;51.954;6.996;2022-08-01T13:03:09;20.80;99.90
39345;DHT22;25061;51.954;6.996;2022-08-01T13:08:19;20.80;99.90
39345;DHT22;25061;51.954;6.996;2022-08-01T13:10:45;20.90;99.90
39345;DHT22;25061;51.954;6.996;2022-08-01T13:13:13;21.10;99.90
39345;DHT22;25061;51.954;6.996;2022-08-01T13:15:40;21.10;99.90
39345;DHT22;25061;51.954;6.996;2022-08-01T13:18:32;21.00;99.90
39345;DHT22;25061;51.954;6.996;2022-08-01T13:21:15;21.20;99.90
39345;DHT22;25061;51.954;6.996;2022-08-01T13:26:49;21.10;99.90
39345;DHT22;25061;51.954;6.996;2022-08-01T13:29:19;21.30;99.90
39345;DHT22;25061;51.954;6.996;2022-08-01T13:31:48;21.20;99.90
39345;DHT22;25061;51.954;6.996;2022-08-01T13:34:14;21.50;99.90
39345;DHT22;25061;51.954;6.996;2022-08-01T13:36:40;21.70;99.90
39345;DHT22;25061;51.954;6.996;2022-08-01T13:39:07;21.80;99.90
39345;DHT22;25061;51.954;6.996;2022-08-01T13:41:52;21.80;99.90
39345;DHT22;25061;51.954;6.996;2022-08-01T13:44:18;21.80;99.90
39345;DHT22;25061;51.954;6.996;2022-08-01T13:46:44;21.80;99.90
39345;DHT22;25061;51.954;6.996;2022-08-01T13:49:11;21.80;99.90
39345;DHT22;25061;51.954;6.996;2022-08-01T13:51:38;21.60;99.90
39345;DHT22;25061;51.954;6.996;2022-08-01T13:54:04;21.70;99.90
39345;DHT22;25061;51.954;6.996;2022-08-01T13:56:30;21.70;99.90
39345;DHT22;25061;51.954;6.996;2022-08-01T13:58:56;21.80;99.90
39345;DHT22;25061;51.954;6.996;2022-08-01T14:01:22;21.90;99.90
39345;DHT22;25061;51.954;6.996;2022-08-01T14:03:48;22.00;99.90
39345;DHT22;25061;51.954;6.996;2022-08-01T14:06:14;22.00;99.90
39345;DHT22;25061;51.954;6.996;2022-08-01T14:08:42;21.80;99.90
39345;DHT22;25061;51.954;6.996;2022-08-01T14:11:07;21.60;99.90
39345;DHT22;25061;51.954;6.996;2022-08-01T14:13:33;21.60;99.90
39345;DHT22;25061;51.954;6.996;2022-08-01T14:15:59;21.70;99.90
39345;DHT22;25061;51.954;6.996;2022-08-01T14:18:25;22.00;99.90
39345;DHT22;25061;51.954;6.996;2022-08-01T14:20:51;22.20;99.90
39345;DHT22;25061;51.954;6.996;2022-08-01T14:23:17;22.20;99.90
39345;DHT22;25061;51.954;6.996;2022-08-01T14:25:42;22.10;99.90
39345;DHT22;25061;51.954;6.996;2022-08-01T14:28:08;21.90;99.90
39345;DHT22;25061;51.954;6.996;2022-08-01T14:30:34;21.80;99.90
39345;DHT22;25061;51.954;6.996;2022-08-01T14:32:59;21.80;99.90
39345;DHT22;25061;51.954;6.996;2022-08-01T14:35:25;21.60;99.90
39345;DHT22;25061;51.954;6.996;2022-08-01T14:37:51;21.60;99.90
39345;DHT22;25061;51.954;6.996;2022-08-01T14:40:17;21.60;99.90
39345;DHT22;25061;51.954;6.996;2022-08-01T14:42:42;21.50;99.90
39345;DHT22;25061;51.954;6.996;2022-08-01T14:45:11;21.60;99.90
39345;DHT22;25061;51.954;6.996;2022-08-01T14:47:40;21.60;99.90
39345;DHT22;25061;51.954;6.996;2022-08-01T14:50:08;21.80;99.90
39345;DHT22;25061;51.954;6.996;2022-08-01T14:52:35;22.00;99.90
39345;DHT22;25061;51.954;6.996;2022-08-01T14:55:03;22.10;99.90
39345;DHT22;25061;51.954;6.996;2022-08-01T14:57:29;22.20;99.90
39345;DHT22;25061;51.954;6.996;2022-08-01T14:59:54;22.40;99.90
39345;DHT22;25061;51.954;6.996;2022-08-01T15:02:20;22.50;99.90
39345;DHT22;25061;51.954;6.996;2022-08-01T15:04:47;22.40;99.90
39345;DHT22;25061;51.954;6.996;2022-08-01T15:07:13;22.30;99.90
39345;DHT22;25061;51.954;6.996;2022-08-01T15:09:39;22.30;99.90
39345;DHT22;25061;51.954;6.996;2022-08-01T15:12:05;22.40;99.90
39345;DHT22;25061;51.954;6.996;2022-08-01T15:14:31;22.10;99.90
39345;DHT22;25061;51.954;6.996;2022-08-01T15:17:23;21.90;99.90
39345;DHT22;25061;51.954;6.996;2022-08-01T15:19:53;21.70;99.90
39345;DHT22;25061;51.954;6.996;2022-08-01T15:22:20;21.70;99.90
39345;DHT22;25061;51.954;6.996;2022-08-01T15:24:49;22.00;99.90
39345;DHT22;25061;51.954;6.996;2022-08-01T15:27:15;22.10;99.90
39345;DHT22;25061;51.954;6.996;2022-08-01T15:29:41;22.40;99.90
39345;DHT22;25061;51.954;6.996;2022-08-01T15:32:07;22.50;99.90
39345;DHT22;25061;51.954;6.996;2022-08-01T15:34:37;22.10;99.90
39345;DHT22;25061;51.954;6.996;2022-08-01T15:37:03;22.10;99.90
39345;DHT22;25061;51.954;6.996;2022-08-01T15:39:30;22.20;99.90
39345;DHT22;25061;51.954;6.996;2022-08-01T15:42:00;22.10;99.90
39345;DHT22;25061;51.954;6.996;2022-08-01T15:44:27;21.80;99.90
39345;DHT22;25061;51.954;6.996;2022-08-01T15:46:53;21.70;99.90
39345;DHT22;25061;51.954;6.996;2022-08-01T15:49:18;21.50;99.90
39345;DHT22;25061;51.954;6.996;2022-08-01T15:51:47;21.50;99.90
39345;DHT22;25061;51.954;6.996;2022-08-01T15:54:13;21.60;99.90
39345;DHT22;25061;51.954;6.996;2022-08-01T15:56:39;21.50;99.90
39345;DHT22;25061;51.954;6.996;2022-08-01T15:59:04;21.60;99.90
39345;DHT22;25061;51.954;6.996;2022-08-01T16:01:30;21.60;99.90
39345;DHT22;25061;51.954;6.996;2022-08-01T16:03:57;21.70;99.90
39345;DHT22;25061;51.954;6.996;2022-08-01T16:06:24;21.70;99.90
39345;DHT22;25061;51.954;6.996;2022-08-01T16:08:50;21.70;99.90
39345;DHT22;25061;51.954;6.996;2022-08-01T16:11:16;21.70;99.90
39345;DHT22;25061;51.954;6.996;2022-08-01T16:13:42;21.80;99.90
39345;DHT22;25061;51.954;6.996;2022-08-01T16:16:09;21.80;99.90
39345;DHT22;25061;51.954;6.996;2022-08-01T16:18:34;21.80;99.90